createdAt,value
2023-04-16T00:02:20.474Z,102562.00
2023-04-16T00:04:49.088Z,102562.00
2023-04-16T00:07:18.726Z,102565.41
2023-04-16T00:09:47.029Z,102562.69
2023-04-16T00:12:15.874Z,102557.41
2023-04-16T00:14:44.146Z,102552.06
2023-04-16T00:17:12.413Z,102556.41
2023-04-16T00:19:40.640Z,102545.03
2023-04-16T00:22:09.107Z,102558.03
2023-04-16T00:24:38.777Z,102552.69
2023-04-16T00:27:07.733Z,102552.63
2023-04-16T00:29:36.016Z,102550.78
2023-04-16T00:32:04.261Z,102548.25
2023-04-16T00:34:32.471Z,102547.38
2023-04-16T00:37:01.651Z,102545.56
2023-04-16T00:39:30.008Z,102552.44
2023-04-16T00:41:59.621Z,102539.28
2023-04-16T00:44:27.821Z,102550.63
2023-04-16T00:46:57.177Z,102552.28
2023-04-16T00:49:25.696Z,102549.63
2023-04-16T00:51:53.949Z,102548.63
2023-04-16T00:54:22.715Z,102549.34
2023-04-16T00:56:52.573Z,102544.97
2023-04-16T00:59:22.629Z,102556.19
2023-04-16T01:01:50.966Z,102548.31
2023-04-16T01:04:19.441Z,102545.69
2023-04-16T01:06:47.819Z,102545.53
2023-04-16T01:09:16.189Z,102554.22
2023-04-16T01:11:44.460Z,102551.50
2023-04-16T01:14:12.962Z,102556.56
2023-04-16T01:16:42.620Z,102550.38
2023-04-16T01:19:11.112Z,102546.00
2023-04-16T01:21:41.028Z,102538.88
2023-04-16T01:24:09.559Z,102546.63
2023-04-16T01:26:37.770Z,102541.22
2023-04-16T01:29:06.149Z,102541.13
2023-04-16T01:31:34.482Z,102536.84
2023-04-16T01:34:06.809Z,102533.25
2023-04-16T01:36:36.585Z,102534.91
2023-04-16T01:39:06.284Z,102534.03
2023-04-16T01:41:34.722Z,102532.19
2023-04-16T01:44:03.532Z,102532.19
2023-04-16T01:46:34.538Z,102518.91
2023-04-16T01:49:03.686Z,102530.38
2023-04-16T01:51:32.242Z,102527.72
2023-04-16T01:54:00.743Z,102526.75
2023-04-16T01:56:30.476Z,102517.13
2023-04-16T01:58:58.815Z,102520.41
2023-04-16T02:01:31.948Z,102522.16
2023-04-16T02:04:00.631Z,102525.59
2023-04-16T02:06:28.969Z,102516.84
2023-04-16T02:08:57.379Z,102513.28
2023-04-16T02:11:26.991Z,102513.22
2023-04-16T02:13:57.635Z,102508.81
2023-04-16T02:16:26.396Z,102514.78
2023-04-16T02:19:00.196Z,102510.34
2023-04-16T02:21:32.619Z,102508.34
2023-04-16T02:24:01.498Z,102510.00
2023-04-16T02:26:32.313Z,102512.50
2023-04-16T02:29:08.430Z,102507.22
2023-04-16T02:31:43.142Z,102507.09
2023-04-16T02:34:12.556Z,102505.31
2023-04-16T02:36:40.926Z,102504.28
2023-04-16T02:39:09.653Z,102505.03
2023-04-16T02:41:38.633Z,102499.69
2023-04-16T02:44:08.561Z,102498.81
2023-04-16T02:46:36.726Z,102494.22
2023-04-16T02:49:04.968Z,102497.78
2023-04-16T02:51:33.297Z,102495.91
2023-04-16T02:54:03.065Z,102497.63
2023-04-16T02:56:32.260Z,102505.34
2023-04-16T02:59:00.563Z,102512.25
2023-04-16T03:01:30.327Z,102500.88
2023-04-16T03:03:58.813Z,102506.84
2023-04-16T03:06:27.560Z,102506.84
2023-04-16T03:08:55.852Z,102501.66
2023-04-16T03:11:24.148Z,102502.53
2023-04-16T03:13:52.376Z,102508.59
2023-04-16T03:16:20.776Z,102510.41
2023-04-16T03:18:50.671Z,102512.16
2023-04-16T03:21:19.216Z,102513.09
2023-04-16T03:23:47.696Z,102509.66
2023-04-16T03:26:16.452Z,102510.53
2023-04-16T03:28:44.675Z,102501.06
2023-04-16T03:31:13.055Z,102499.41
2023-04-16T03:33:41.490Z,102495.09
2023-04-16T03:36:11.609Z,102496.06
2023-04-16T03:38:39.873Z,102494.34
2023-04-16T03:41:09.134Z,102492.69
2023-04-16T03:43:38.743Z,102491.88
2023-04-16T03:46:07.214Z,102494.66
2023-04-16T03:48:36.557Z,102488.59
2023-04-16T03:51:05.849Z,102493.03
2023-04-16T03:53:36.337Z,102469.25
2023-04-16T03:56:04.929Z,102487.19
2023-04-16T03:58:33.185Z,102495.03
2023-04-16T04:01:01.545Z,102495.19
2023-04-16T04:03:30.134Z,102494.44
2023-04-16T04:05:58.641Z,102492.78
2023-04-16T04:08:30.468Z,102486.97
2023-04-16T04:11:00.204Z,102487.28
2023-04-16T04:13:29.333Z,102487.41
2023-04-16T04:15:58.401Z,102488.50
2023-04-16T04:18:28.461Z,102482.63
2023-04-16T04:20:57.245Z,102486.31
2023-04-16T04:23:29.447Z,102484.81
2023-04-16T04:25:59.520Z,102476.31
2023-04-16T04:28:27.861Z,102472.06
2023-04-16T04:30:56.373Z,102466.03
2023-04-16T04:33:24.618Z,102471.38
2023-04-16T04:35:53.080Z,102461.78
2023-04-16T04:38:25.327Z,102464.69
2023-04-16T04:40:54.951Z,102466.66
2023-04-16T04:43:26.328Z,102465.03
2023-04-16T04:45:54.622Z,102471.28
2023-04-16T04:48:26.615Z,102465.34
2023-04-16T04:50:56.117Z,102462.84
2023-04-16T04:53:25.283Z,102463.06
2023-04-16T04:55:55.657Z,102460.63
2023-04-16T04:58:27.130Z,102459.94
2023-04-16T05:00:55.545Z,102463.56
2023-04-16T05:03:23.848Z,102464.56
2023-04-16T05:05:52.170Z,102458.59
2023-04-16T05:08:20.439Z,102459.63
2023-04-16T05:10:48.670Z,102449.16
2023-04-16T05:13:16.856Z,102447.53
2023-04-16T05:15:46.861Z,102447.03
2023-04-16T05:18:15.097Z,102458.63
2023-04-16T05:20:43.335Z,102456.25
2023-04-16T05:23:11.747Z,102459.09
2023-04-16T05:25:39.984Z,102455.84
2023-04-16T05:28:08.221Z,102453.53
2023-04-16T05:30:36.467Z,102449.56
2023-04-16T05:33:06.223Z,102448.34
2023-04-16T05:35:35.132Z,102447.03
2023-04-16T05:38:04.483Z,102439.44
2023-04-16T05:40:32.951Z,102446.88
2023-04-16T05:43:01.157Z,102443.78
2023-04-16T05:45:29.503Z,102447.66
2023-04-16T05:47:57.882Z,102441.06
2023-04-16T05:50:27.562Z,102433.63
2023-04-16T05:52:55.786Z,102441.78
2023-04-16T05:55:23.972Z,102445.59
2023-04-16T05:57:52.204Z,102447.47
2023-04-16T06:00:20.588Z,102440.75
2023-04-16T06:02:48.928Z,102434.91
2023-04-16T06:05:17.486Z,102435.19
2023-04-16T06:07:47.124Z,102432.88
2023-04-16T06:10:15.446Z,102429.84
2023-04-16T06:12:43.775Z,102426.66
2023-04-16T06:15:12.788Z,102427.81
2023-04-16T06:17:41.621Z,102422.03
2023-04-16T06:20:10.967Z,102426.63
2023-04-16T06:22:39.241Z,102421.72
2023-04-16T06:25:10.166Z,102421.09
2023-04-16T06:27:38.585Z,102414.53
2023-04-16T06:30:12.354Z,102412.25
2023-04-16T06:32:40.994Z,102412.53
2023-04-16T06:35:10.121Z,102420.59
2023-04-16T06:37:38.448Z,102413.88
2023-04-16T06:40:09.401Z,102415.00
2023-04-16T06:42:37.845Z,102408.25
2023-04-16T06:45:07.079Z,102402.22
2023-04-16T06:47:35.458Z,102409.56
2023-04-16T06:50:03.684Z,102408.03
2023-04-16T06:52:32.290Z,102409.19
2023-04-16T06:55:00.553Z,102404.19
2023-04-16T06:57:30.273Z,102407.91
2023-04-16T06:59:58.464Z,102401.97
2023-04-16T07:02:26.947Z,102382.91
2023-04-16T07:04:55.316Z,102385.78
2023-04-16T07:07:23.635Z,102391.31
2023-04-16T07:09:52.127Z,102388.13
2023-04-16T07:12:22.876Z,102376.91
2023-04-16T07:14:52.795Z,102388.53
2023-04-16T07:17:21.012Z,102379.94
2023-04-16T07:19:49.732Z,102380.13
2023-04-16T07:22:18.178Z,102389.03
2023-04-16T07:24:46.379Z,102390.94
2023-04-16T07:27:14.524Z,102390.25
2023-04-16T07:29:42.849Z,102383.38
2023-04-16T07:32:15.257Z,102383.47
2023-04-16T07:34:44.192Z,102383.63
2023-04-16T07:37:12.425Z,102373.22
2023-04-16T07:39:40.776Z,102378.69
2023-04-16T07:42:09.002Z,102372.75
2023-04-16T07:44:37.341Z,102382.56
2023-04-16T07:47:05.870Z,102375.72
2023-04-16T07:49:35.709Z,102376.78
2023-04-16T07:52:03.947Z,102373.47
2023-04-16T07:54:32.248Z,102376.25
2023-04-16T07:57:00.530Z,102372.06
2023-04-16T07:59:29.290Z,102373.16
2023-04-16T08:01:58.072Z,102370.69
2023-04-16T08:04:26.785Z,102375.28
2023-04-16T08:06:56.587Z,102371.03
2023-04-16T08:09:28.401Z,102379.88
2023-04-16T08:11:56.838Z,102373.81
2023-04-16T08:14:25.043Z,102372.91
2023-04-16T08:16:53.293Z,102375.53
2023-04-16T08:19:21.539Z,102372.09
2023-04-16T08:21:49.892Z,102370.34
2023-04-16T08:24:19.652Z,102370.34
2023-04-16T08:26:47.877Z,102368.53
2023-04-16T08:29:16.196Z,102369.38
2023-04-16T08:31:44.746Z,102374.69
2023-04-16T08:34:13.018Z,102369.44
2023-04-16T08:36:41.969Z,102363.41
2023-04-16T08:39:10.802Z,102371.41
2023-04-16T08:41:44.136Z,102374.97
2023-04-16T08:44:18.686Z,102369.66
2023-04-16T08:46:48.051Z,102375.81
2023-04-16T08:49:19.105Z,102366.13
2023-04-16T08:51:55.419Z,102374.97
2023-04-16T08:54:33.576Z,102371.47
2023-04-16T08:57:07.637Z,102362.81
2023-04-16T08:59:36.765Z,102370.78
2023-04-16T09:02:06.959Z,102366.41
2023-04-16T09:04:35.951Z,102368.22
2023-04-16T09:07:07.473Z,102362.16
2023-04-16T09:09:36.520Z,102362.22
2023-04-16T09:12:06.431Z,102348.22
2023-04-16T09:14:36.080Z,102350.09
2023-04-16T09:17:05.355Z,102358.97
2023-04-16T09:19:33.808Z,102342.31
2023-04-16T09:22:02.103Z,102350.28
2023-04-16T09:24:31.120Z,102348.63
2023-04-16T09:27:00.285Z,102346.03
2023-04-16T09:29:42.604Z,102341.63
2023-04-16T09:32:12.422Z,102344.19
2023-04-16T09:34:57.704Z,102345.03
2023-04-16T09:37:29.691Z,102352.03
2023-04-16T09:39:59.580Z,102325.63
2023-04-16T09:42:29.627Z,102341.50
2023-04-16T09:45:01.943Z,102337.94
2023-04-16T09:47:41.968Z,102338.84
2023-04-16T09:50:12.906Z,102346.75
2023-04-16T09:52:43.316Z,102332.66
2023-04-16T09:55:11.536Z,102337.03
2023-04-16T09:57:39.965Z,102341.44
2023-04-16T10:00:11.570Z,102334.41
2023-04-16T10:02:42.712Z,102344.09
2023-04-16T10:05:16.800Z,102337.97
2023-04-16T10:07:45.252Z,102340.63
2023-04-16T10:10:14.029Z,102341.53
2023-04-16T10:12:43.717Z,102336.28
2023-04-16T10:15:13.579Z,102335.44
2023-04-16T10:17:42.166Z,102340.75
2023-04-16T10:20:11.242Z,102335.53
2023-04-16T10:22:39.634Z,102333.81
2023-04-16T10:25:09.250Z,102331.22
2023-04-16T10:27:38.603Z,102331.28
2023-04-16T10:30:08.956Z,102326.88
2023-04-16T10:32:39.833Z,102336.59
2023-04-16T10:35:08.595Z,102331.38
2023-04-16T10:37:39.069Z,102330.56
2023-04-16T10:40:25.464Z,102322.66
2023-04-16T10:42:58.299Z,102318.31
2023-04-16T10:45:33.601Z,102316.56
2023-04-16T10:48:06.101Z,102316.63
2023-04-16T10:50:37.790Z,102314.88
2023-04-16T10:53:19.281Z,102307.84
2023-04-16T10:56:13.118Z,102321.09
2023-04-16T10:58:41.487Z,102314.91
2023-04-16T11:01:14.128Z,102314.91
2023-04-16T11:03:45.475Z,102313.16
2023-04-16T11:06:16.748Z,102311.41
2023-04-16T11:08:54.412Z,102313.16
2023-04-16T11:11:23.954Z,102296.41
2023-04-16T11:13:57.070Z,102311.34
2023-04-16T11:16:26.440Z,102313.13
2023-04-16T11:19:07.845Z,102309.59
2023-04-16T11:21:37.145Z,102314.88
2023-04-16T11:24:05.535Z,102307.84
2023-04-16T11:26:33.837Z,102311.38
2023-04-16T11:29:02.480Z,102315.81
2023-04-16T11:31:30.896Z,102312.25
2023-04-16T11:34:01.032Z,102305.22
2023-04-16T11:36:29.360Z,102306.09
2023-04-16T11:39:04.102Z,102294.63
2023-04-16T11:41:32.428Z,102299.91
2023-04-16T11:44:00.649Z,102299.91
2023-04-16T11:46:40.662Z,102293.75
2023-04-16T11:49:11.084Z,102294.63
2023-04-16T11:51:43.282Z,102299.03
2023-04-16T11:54:19.289Z,102296.38
2023-04-16T11:56:49.032Z,102291.97
2023-04-16T11:59:19.188Z,102289.28
2023-04-16T12:01:49.458Z,102293.72
2023-04-16T12:04:22.313Z,102288.44
2023-04-16T12:07:05.841Z,102286.66
2023-04-16T12:09:36.098Z,102288.44
2023-04-16T12:12:06.863Z,102290.22
2023-04-16T12:14:35.450Z,102285.78
2023-04-16T12:17:20.819Z,102285.78
2023-04-16T12:19:56.797Z,102272.59
2023-04-16T12:22:29.869Z,102277.03
2023-04-16T12:25:02.903Z,102287.59
2023-04-16T12:27:46.643Z,102277.88
2023-04-16T12:30:16.380Z,102275.22
2023-04-16T12:32:46.183Z,102270.81
2023-04-16T12:35:30.569Z,102272.56
2023-04-16T12:37:59.031Z,102267.22
2023-04-16T12:40:27.601Z,102265.38
2023-04-16T12:42:56.090Z,102260.91
2023-04-16T12:45:24.323Z,102257.31
2023-04-16T12:47:52.906Z,102251.03
2023-04-16T12:50:22.722Z,102236.75
2023-04-16T12:52:51.688Z,102244.59
2023-04-16T12:55:20.734Z,102241.00
2023-04-16T12:57:49.947Z,102233.88
2023-04-16T13:00:18.548Z,102241.81
2023-04-16T13:02:47.025Z,102236.53
2023-04-16T13:05:16.711Z,102235.59
2023-04-16T13:07:46.593Z,102233.66
2023-04-16T13:10:15.021Z,102232.63
2023-04-16T13:12:43.490Z,102232.44
2023-04-16T13:15:12.550Z,102234.03
2023-04-16T13:17:40.971Z,102229.53
2023-04-16T13:20:10.171Z,102236.91
2023-04-16T13:22:38.552Z,102236.31
2023-04-16T13:25:09.920Z,102235.59
2023-04-16T13:27:38.332Z,102242.81
2023-04-16T13:30:07.811Z,102243.91
2023-04-16T13:32:36.375Z,102245.78
2023-04-16T13:35:04.887Z,102244.06
2023-04-16T13:37:33.615Z,102244.97
2023-04-16T13:40:01.929Z,102237.09
2023-04-16T13:42:33.762Z,102243.38
2023-04-16T13:45:02.165Z,102241.69
2023-04-16T13:47:32.653Z,102237.34
2023-04-16T13:50:01.057Z,102241.78
2023-04-16T13:52:29.379Z,102240.00
2023-04-16T13:54:59.638Z,102239.13
2023-04-16T13:57:29.222Z,102232.13
2023-04-16T13:59:59.189Z,102231.25
2023-04-16T14:02:27.871Z,102232.13
2023-04-16T14:04:56.134Z,102230.34
2023-04-16T14:07:27.100Z,102237.41
2023-04-16T14:09:55.494Z,102235.63
2023-04-16T14:12:23.855Z,102227.72
2023-04-16T14:14:52.186Z,102233.00
2023-04-16T14:17:21.958Z,102225.97
2023-04-16T14:19:50.394Z,102230.34
2023-04-16T14:22:18.642Z,102228.59
2023-04-16T14:24:46.946Z,102225.97
2023-04-16T14:27:15.296Z,102225.97
2023-04-16T14:29:44.407Z,102225.06
2023-04-16T14:32:12.821Z,102226.84
2023-04-16T14:34:42.755Z,102218.91
2023-04-16T14:37:11.167Z,102225.09
2023-04-16T14:39:39.823Z,102229.47
2023-04-16T14:42:08.062Z,102221.56
2023-04-16T14:44:36.326Z,102225.09
2023-04-16T14:47:04.646Z,102226.84
2023-04-16T14:49:33.298Z,102229.50
2023-04-16T14:52:05.574Z,102208.34
2023-04-16T14:54:34.383Z,102221.53
2023-04-16T14:57:03.512Z,102223.31
2023-04-16T14:59:32.414Z,102214.53
2023-04-16T15:02:01.135Z,102221.56
2023-04-16T15:04:31.023Z,102225.09
2023-04-16T15:06:59.393Z,102214.53
2023-04-16T15:09:29.196Z,102223.31
2023-04-16T15:11:58.158Z,102232.13
2023-04-16T15:14:26.553Z,102223.31
2023-04-16T15:16:55.031Z,102229.47
2023-04-16T15:19:23.342Z,102222.44
2023-04-16T15:21:51.717Z,102232.13
2023-04-16T15:24:20.368Z,102219.78
2023-04-16T15:26:49.943Z,102226.84
2023-04-16T15:29:18.231Z,102232.09
2023-04-16T15:31:46.615Z,102232.13
2023-04-16T15:34:15.161Z,102240.91
2023-04-16T15:36:43.467Z,102235.63
2023-04-16T15:39:12.279Z,102225.06
2023-04-16T15:41:53.583Z,102235.59
2023-04-16T15:44:29.449Z,102241.75
2023-04-16T15:46:57.645Z,102239.06
2023-04-16T15:49:26.209Z,102240.78
2023-04-16T15:51:54.745Z,102240.78
2023-04-16T15:54:23.113Z,102240.75
2023-04-16T15:56:51.598Z,102239.84
2023-04-16T15:59:20.086Z,102239.78
2023-04-16T16:01:49.837Z,102245.91
2023-04-16T16:04:18.433Z,102243.22
2023-04-16T16:06:46.742Z,102245.78
2023-04-16T16:09:15.005Z,102240.53
2023-04-16T16:11:43.228Z,102246.63
2023-04-16T16:14:11.786Z,102244.00
2023-04-16T16:16:40.253Z,102246.66
2023-04-16T16:19:10.132Z,102244.84
2023-04-16T16:21:38.668Z,102249.22
2023-04-16T16:24:07.759Z,102247.47
2023-04-16T16:26:35.994Z,102245.69
2023-04-16T16:29:04.713Z,102235.13
2023-04-16T16:31:33.069Z,102244.81
2023-04-16T16:34:01.652Z,102246.53
2023-04-16T16:36:32.444Z,102249.16
2023-04-16T16:39:00.711Z,102244.75
2023-04-16T16:41:28.930Z,102249.13
2023-04-16T16:43:58.745Z,102238.56
2023-04-16T16:46:27.034Z,102249.09
2023-04-16T16:48:55.325Z,102245.56
2023-04-16T16:51:23.733Z,102252.59
2023-04-16T16:53:54.169Z,102251.72
2023-04-16T16:56:23.014Z,102245.53
2023-04-16T16:58:51.307Z,102244.63
2023-04-16T17:01:19.702Z,102252.50
2023-04-16T17:03:48.116Z,102258.63
2023-04-16T17:06:16.713Z,102248.94
2023-04-16T17:08:45.411Z,102254.19
2023-04-16T17:11:18.265Z,102244.47
2023-04-16T17:13:49.253Z,102252.34
2023-04-16T17:16:19.190Z,102257.63
2023-04-16T17:18:47.606Z,102253.16
2023-04-16T17:21:16.830Z,102250.47
2023-04-16T17:23:45.489Z,102252.16
2023-04-16T17:26:13.686Z,102259.97
2023-04-16T17:28:45.383Z,102253.72
2023-04-16T17:31:16.760Z,102250.16
2023-04-16T17:33:45.327Z,102265.06
2023-04-16T17:36:14.133Z,102258.91
2023-04-16T17:38:44.761Z,102261.47
2023-04-16T17:41:13.347Z,102260.53
2023-04-16T17:43:41.596Z,102267.47
2023-04-16T17:46:12.578Z,102263.88
2023-04-16T17:48:41.156Z,102270.81
2023-04-16T17:51:12.931Z,102268.09
2023-04-16T17:53:42.679Z,102260.16
2023-04-16T17:56:11.302Z,102270.59
2023-04-16T17:58:39.534Z,102269.66
2023-04-16T18:01:07.861Z,102265.19
2023-04-16T18:03:38.465Z,102265.13
2023-04-16T18:06:07.259Z,102256.28
2023-04-16T18:08:36.985Z,102259.78
2023-04-16T18:11:11.009Z,102257.03
2023-04-16T18:13:39.677Z,102254.31
2023-04-16T18:16:14.909Z,102251.63
2023-04-16T18:18:44.872Z,102253.25
2023-04-16T18:21:13.304Z,102246.19
2023-04-16T18:23:41.563Z,102251.31
2023-04-16T18:26:11.070Z,102248.56
2023-04-16T18:28:39.541Z,102249.34
2023-04-16T18:31:08.084Z,102263.25
2023-04-16T18:33:54.172Z,102257.84
2023-04-16T18:36:26.658Z,102253.25
2023-04-16T18:41:27.742Z,102268.63
2023-04-16T18:43:55.976Z,102263.22
2023-04-16T18:46:25.320Z,102264.72
2023-04-16T18:48:58.316Z,102271.41
2023-04-16T18:51:28.357Z,102264.97
2023-04-16T18:53:56.814Z,102265.47
2023-04-16T18:56:25.164Z,102258.03
2023-04-16T18:58:53.480Z,102265.53
2023-04-16T19:01:26.848Z,102273.03
2023-04-16T19:03:56.212Z,102268.34
2023-04-16T19:06:24.486Z,102272.47
2023-04-16T19:08:57.183Z,102271.44
2023-04-16T19:11:25.627Z,102258.03
2023-04-16T19:13:53.900Z,102266.94
2023-04-16T19:16:22.314Z,102274.03
2023-04-16T19:18:50.873Z,102274.97
2023-04-16T19:21:19.226Z,102272.41
2023-04-16T19:23:48.258Z,102272.41
2023-04-16T19:26:18.087Z,102271.41
2023-04-16T19:28:46.917Z,102272.13
2023-04-16T19:31:15.341Z,102276.44
2023-04-16T19:33:43.610Z,102269.41
2023-04-16T19:36:11.822Z,102278.03
2023-04-16T19:38:40.228Z,102269.19
2023-04-16T19:41:08.489Z,102269.88
2023-04-16T19:43:38.166Z,102267.94
2023-04-16T19:46:06.588Z,102273.06
2023-04-16T19:48:34.787Z,102274.69
2023-04-16T19:51:04.056Z,102273.69
2023-04-16T19:53:32.436Z,102285.88
2023-04-16T19:56:00.624Z,102271.88
2023-04-16T19:58:28.842Z,102284.09
2023-04-16T20:00:58.560Z,102278.69
2023-04-16T20:03:26.888Z,102277.41
2023-04-16T20:05:55.173Z,102288.56
2023-04-16T20:08:23.523Z,102291.06
2023-04-16T20:10:54.430Z,102287.41
2023-04-16T20:13:22.901Z,102286.41
2023-04-16T20:15:53.224Z,102288.66
2023-04-16T20:18:22.895Z,102284.06
2023-04-16T20:20:51.091Z,102289.09
2023-04-16T20:23:21.904Z,102277.50
2023-04-16T20:25:50.152Z,102282.78
2023-04-16T20:28:21.445Z,102286.25
2023-04-16T20:30:51.067Z,102287.00
2023-04-16T20:33:23.837Z,102286.09
2023-04-16T20:35:52.350Z,102286.78
2023-04-16T20:38:23.929Z,102284.13
2023-04-16T20:41:06.653Z,102287.47
2023-04-16T20:43:41.113Z,102278.63
2023-04-16T20:46:09.907Z,102279.41
2023-04-16T20:48:40.188Z,102273.28
2023-04-16T20:51:09.516Z,102276.81
2023-04-16T20:53:38.174Z,102280.19
2023-04-16T20:56:09.210Z,102275.72
2023-04-16T20:58:37.553Z,102275.59
2023-04-16T21:01:06.181Z,102283.38
2023-04-16T21:03:34.972Z,102280.63
2023-04-16T21:06:05.155Z,102277.97
2023-04-16T21:08:33.625Z,102272.50
2023-04-16T21:11:01.876Z,102276.81
2023-04-16T21:13:30.251Z,102280.22
2023-04-16T21:15:58.562Z,102281.88
2023-04-16T21:18:26.885Z,102274.81
2023-04-16T21:20:55.181Z,102277.34
2023-04-16T21:23:25.036Z,102275.56
2023-04-16T21:25:53.283Z,102279.03
2023-04-16T21:28:21.480Z,102278.91
2023-04-16T21:30:52.350Z,102277.09
2023-04-16T21:33:20.920Z,102283.13
2023-04-16T21:35:52.795Z,102278.63
2023-04-16T21:38:21.856Z,102282.88
2023-04-16T21:40:54.060Z,102275.00
2023-04-16T21:43:22.793Z,102281.97
2023-04-16T21:45:53.756Z,102281.03
2023-04-16T21:48:22.016Z,102279.09
2023-04-16T21:50:56.164Z,102276.22
2023-04-16T21:53:24.470Z,102279.78
2023-04-16T21:55:55.451Z,102272.69
2023-04-16T21:58:24.498Z,102280.38
2023-04-16T22:00:52.952Z,102280.25
2023-04-16T22:03:26.359Z,102288.81
2023-04-16T22:06:00.726Z,102292.03
2023-04-16T22:08:29.628Z,102289.38
2023-04-16T22:11:00.172Z,102280.53
2023-04-16T22:13:32.471Z,102289.94
2023-04-16T22:16:02.472Z,102289.78
2023-04-16T22:18:32.954Z,102292.03
2023-04-16T22:21:02.195Z,102279.53
2023-04-16T22:23:30.412Z,102293.41
2023-04-16T22:26:00.172Z,102285.41
2023-04-16T22:28:28.367Z,102292.16
2023-04-16T22:30:57.418Z,102284.06
2023-04-16T22:33:25.909Z,102280.50
2023-04-16T22:35:54.101Z,102284.69
2023-04-16T22:38:22.635Z,102292.16
2023-04-16T22:40:51.122Z,102287.13
2023-04-16T22:43:20.719Z,102296.00
2023-04-16T22:45:49.022Z,102292.16
2023-04-16T22:48:17.885Z,102290.97
2023-04-16T22:50:51.051Z,102288.00
2023-04-16T22:53:19.419Z,102288.41
2023-04-16T22:55:47.689Z,102304.88
2023-04-16T22:58:17.050Z,102295.50
2023-04-16T23:00:47.684Z,102287.84
2023-04-16T23:03:16.305Z,102297.53
2023-04-16T23:05:44.659Z,102291.38
2023-04-16T23:08:12.922Z,102292.06
2023-04-16T23:10:41.193Z,102293.06
2023-04-16T23:13:11.588Z,102287.69
2023-04-16T23:15:39.883Z,102295.50
2023-04-16T23:18:09.647Z,102290.78
2023-04-16T23:20:37.963Z,102304.13
2023-04-16T23:23:06.259Z,102302.66
2023-04-16T23:25:34.470Z,102304.72
2023-04-16T23:28:02.682Z,102299.13
2023-04-16T23:30:30.946Z,102300.66
2023-04-16T23:32:59.198Z,102292.72
2023-04-16T23:35:28.881Z,102296.97
2023-04-16T23:37:57.295Z,102306.59
2023-04-16T23:40:25.733Z,102301.38
2023-04-16T23:42:53.879Z,102300.47
2023-04-16T23:45:22.846Z,102302.88
2023-04-16T23:47:51.850Z,102301.66
2023-04-16T23:50:20.236Z,102299.59
2023-04-16T23:52:49.918Z,102299.31
2023-04-16T23:55:18.256Z,102298.91
2023-04-16T23:57:46.738Z,102295.97
